sensor_id;sensor_type;location;lat;lon;timestamp;temperature;humidity
51783;DHT22;37845;53.196;5.638;2023-05-07T01:31:21;13.80;99.90
51783;DHT22;37845;53.196;5.638;2023-05-07T01:33:46;13.80;99.90
51783;DHT22;37845;53.196;5.638;2023-05-07T01:36:12;13.80;99.90
51783;DHT22;37845;53.196;5.638;2023-05-07T01:38:41;13.80;99.90
51783;DHT22;37845;53.196;5.638;2023-05-07T01:41:07;14.90;99.90
51783;DHT22;37845;53.196;5.638;2023-05-07T01:43:35;13.80;99.90
51783;DHT22;37845;53.196;5.638;2023-05-07T01:46:01;13.80;99.90
51783;DHT22;37845;53.196;5.638;2023-05-07T01:48:27;13.80;99.90
51783;DHT22;37845;53.196;5.638;2023-05-07T01:50:57;13.70;99.90
51783;DHT22;37845;53.196;5.638;2023-05-07T01:55:58;13.70;99.90
51783;DHT22;37845;53.196;5.638;2023-05-07T01:58:23;13.70;99.90
51783;DHT22;37845;53.196;5.638;2023-05-07T02:00:49;13.70;99.90
51783;DHT22;37845;53.196;5.638;2023-05-07T02:03:21;13.60;99.90
51783;DHT22;37845;53.196;5.638;2023-05-07T02:05:53;13.60;99.90
51783;DHT22;37845;53.196;5.638;2023-05-07T02:08:18;14.00;99.90
51783;DHT22;37845;53.196;5.638;2023-05-07T02:10:44;13.70;99.90
51783;DHT22;37845;53.196;5.638;2023-05-07T02:13:09;13.70;99.90
51783;DHT22;37845;53.196;5.638;2023-05-07T02:15:38;13.60;99.90
51783;DHT22;37845;53.196;5.638;2023-05-07T02:18:04;13.60;99.90
51783;DHT22;37845;53.196;5.638;2023-05-07T02:20:34;13.60;99.90
51783;DHT22;37845;53.196;5.638;2023-05-07T02:23:00;13.50;99.90
51783;DHT22;37845;53.196;5.638;2023-05-07T02:25:25;13.60;99.90
51783;DHT22;37845;53.196;5.638;2023-05-07T02:27:51;13.60;99.90
51783;DHT22;37845;53.196;5.638;2023-05-07T02:30:17;13.60;99.90
51783;DHT22;37845;53.196;5.638;2023-05-07T02:32:42;13.50;99.90
51783;DHT22;37845;53.196;5.638;2023-05-07T02:35:08;13.50;99.90
51783;DHT22;37845;53.196;5.638;2023-05-07T02:37:34;13.50;99.90
51783;DHT22;37845;53.196;5.638;2023-05-07T02:40:00;13.50;99.90
51783;DHT22;37845;53.196;5.638;2023-05-07T02:42:29;13.50;99.90
51783;DHT22;37845;53.196;5.638;2023-05-07T02:44:55;13.50;99.90
51783;DHT22;37845;53.196;5.638;2023-05-07T02:47:21;13.50;99.90
51783;DHT22;37845;53.196;5.638;2023-05-07T02:49:47;13.50;99.90
51783;DHT22;37845;53.196;5.638;2023-05-07T02:52:12;13.30;99.90
51783;DHT22;37845;53.196;5.638;2023-05-07T02:54:38;13.50;99.90
51783;DHT22;37845;53.196;5.638;2023-05-07T02:57:03;13.40;99.90
51783;DHT22;37845;53.196;5.638;2023-05-07T02:59:29;13.40;99.90
51783;DHT22;37845;53.196;5.638;2023-05-07T03:01:55;12.60;99.90
51783;DHT22;37845;53.196;5.638;2023-05-07T03:04:21;13.40;99.90
51783;DHT22;37845;53.196;5.638;2023-05-07T03:06:46;13.40;99.90
51783;DHT22;37845;53.196;5.638;2023-05-07T03:09:15;13.40;99.90
51783;DHT22;37845;53.196;5.638;2023-05-07T03:11:41;13.40;99.90
51783;DHT22;37845;53.196;5.638;2023-05-07T03:14:07;13.30;99.90
51783;DHT22;37845;53.196;5.638;2023-05-07T03:16:44;13.30;99.90
51783;DHT22;37845;53.196;5.638;2023-05-07T05:08:09;12.70;99.90
51783;DHT22;37845;53.196;5.638;2023-05-07T08:23:38;14.20;99.90
51783;DHT22;37845;53.196;5.638;2023-05-07T08:45:39;14.30;99.90
51783;DHT22;37845;53.196;5.638;2023-05-07T08:48:06;14.40;99.90
51783;DHT22;37845;53.196;5.638;2023-05-07T08:50:35;14.50;99.90
51783;DHT22;37845;53.196;5.638;2023-05-07T08:55:39;13.70;99.90
51783;DHT22;37845;53.196;5.638;2023-05-07T09:03:28;14.90;99.90
51783;DHT22;37845;53.196;5.638;2023-05-07T09:08:50;14.50;99.90
51783;DHT22;37845;53.196;5.638;2023-05-07T09:11:16;15.00;99.90
51783;DHT22;37845;53.196;5.638;2023-05-07T09:13:44;15.10;99.90
51783;DHT22;37845;53.196;5.638;2023-05-07T09:27:23;15.20;99.90
51783;DHT22;37845;53.196;5.638;2023-05-07T09:29:49;15.40;99.90
51783;DHT22;37845;53.196;5.638;2023-05-07T09:32:15;15.40;99.90
51783;DHT22;37845;53.196;5.638;2023-05-07T09:43:09;15.90;99.90
51783;DHT22;37845;53.196;5.638;2023-05-07T09:45:35;16.00;99.90
51783;DHT22;37845;53.196;5.638;2023-05-07T09:48:01;16.10;99.90
51783;DHT22;37845;53.196;5.638;2023-05-07T09:50:32;16.20;99.90
51783;DHT22;37845;53.196;5.638;2023-05-07T09:52:58;16.10;99.90
51783;DHT22;37845;53.196;5.638;2023-05-07T10:03:09;15.60;99.90
51783;DHT22;37845;53.196;5.638;2023-05-07T10:05:36;15.90;99.90
51783;DHT22;37845;53.196;5.638;2023-05-07T10:08:02;16.00;99.90
51783;DHT22;37845;53.196;5.638;2023-05-07T10:10:28;16.00;99.90
51783;DHT22;37845;53.196;5.638;2023-05-07T10:12:54;16.10;99.90
51783;DHT22;37845;53.196;5.638;2023-05-07T10:15:20;16.20;99.90
51783;DHT22;37845;53.196;5.638;2023-05-07T10:17:46;16.30;99.90
51783;DHT22;37845;53.196;5.638;2023-05-07T10:20:13;16.40;99.90
51783;DHT22;37845;53.196;5.638;2023-05-07T10:22:41;16.60;99.90
51783;DHT22;37845;53.196;5.638;2023-05-07T10:25:29;16.60;99.90
51783;DHT22;37845;53.196;5.638;2023-05-07T10:27:54;16.70;99.90
51783;DHT22;37845;53.196;5.638;2023-05-07T10:32:49;16.90;99.90
51783;DHT22;37845;53.196;5.638;2023-05-07T10:35:23;16.90;99.90
51783;DHT22;37845;53.196;5.638;2023-05-07T10:37:49;17.00;99.90
51783;DHT22;37845;53.196;5.638;2023-05-07T10:40:15;17.10;99.90
51783;DHT22;37845;53.196;5.638;2023-05-07T10:42:53;17.10;99.90
51783;DHT22;37845;53.196;5.638;2023-05-07T10:45:18;17.10;99.90
51783;DHT22;37845;53.196;5.638;2023-05-07T10:50:34;17.10;99.90
51783;DHT22;37845;53.196;5.638;2023-05-07T11:00:50;17.30;99.90
51783;DHT22;37845;53.196;5.638;2023-05-07T11:03:16;17.30;99.90
51783;DHT22;37845;53.196;5.638;2023-05-07T11:05:42;17.30;99.90
51783;DHT22;37845;53.196;5.638;2023-05-07T11:08:08;17.40;99.90
51783;DHT22;37845;53.196;5.638;2023-05-07T11:13:15;17.20;99.90
51783;DHT22;37845;53.196;5.638;2023-05-07T11:15:42;17.30;99.90
51783;DHT22;37845;53.196;5.638;2023-05-07T11:18:10;17.40;99.90
51783;DHT22;37845;53.196;5.638;2023-05-07T11:26:15;16.90;99.90
51783;DHT22;37845;53.196;5.638;2023-05-07T11:28:42;17.70;99.90
51783;DHT22;37845;53.196;5.638;2023-05-07T11:31:08;17.70;99.90
51783;DHT22;37845;53.196;5.638;2023-05-07T11:33:34;17.90;99.90
51783;DHT22;37845;53.196;5.638;2023-05-07T11:36:00;17.90;99.90
51783;DHT22;37845;53.196;5.638;2023-05-07T11:38:28;18.10;99.90
51783;DHT22;37845;53.196;5.638;2023-05-07T11:41:00;18.10;99.90
51783;DHT22;37845;53.196;5.638;2023-05-07T11:43:39;18.20;99.90
51783;DHT22;37845;53.196;5.638;2023-05-07T11:46:19;17.90;99.90
51783;DHT22;37845;53.196;5.638;2023-05-07T13:11:45;20.20;99.90
51783;DHT22;37845;53.196;5.638;2023-05-07T13:14:11;20.30;99.90
51783;DHT22;37845;53.196;5.638;2023-05-07T13:16:43;20.30;99.90
51783;DHT22;37845;53.196;5.638;2023-05-07T13:37:48;20.40;99.90
51783;DHT22;37845;53.196;5.638;2023-05-07T13:40:14;20.40;99.90
51783;DHT22;37845;53.196;5.638;2023-05-07T13:42:40;20.40;99.90
51783;DHT22;37845;53.196;5.638;2023-05-07T13:45:06;20.40;99.90
51783;DHT22;37845;53.196;5.638;2023-05-07T13:47:32;20.40;99.90
51783;DHT22;37845;53.196;5.638;2023-05-07T13:49:58;20.50;99.90
51783;DHT22;37845;53.196;5.638;2023-05-07T14:12:35;20.70;99.90
51783;DHT22;37845;53.196;5.638;2023-05-07T14:15:01;20.60;99.90
51783;DHT22;37845;53.196;5.638;2023-05-07T14:23:22;20.70;99.90
51783;DHT22;37845;53.196;5.638;2023-05-07T15:10:06;20.70;99.90
51783;DHT22;37845;53.196;5.638;2023-05-07T15:12:32;20.70;99.90
51783;DHT22;37845;53.196;5.638;2023-05-07T15:14:57;20.70;99.90
51783;DHT22;37845;53.196;5.638;2023-05-07T15:17:23;20.60;99.90
51783;DHT22;37845;53.196;5.638;2023-05-07T15:19:48;20.60;99.90
51783;DHT22;37845;53.196;5.638;2023-05-07T15:22:17;20.60;99.90
51783;DHT22;37845;53.196;5.638;2023-05-07T15:24:43;20.50;99.90
51783;DHT22;37845;53.196;5.638;2023-05-07T15:27:10;20.50;99.90
51783;DHT22;37845;53.196;5.638;2023-05-07T15:29:35;20.50;99.90
51783;DHT22;37845;53.196;5.638;2023-05-07T15:32:06;20.50;99.90
51783;DHT22;37845;53.196;5.638;2023-05-07T15:37:23;20.70;99.90
51783;DHT22;37845;53.196;5.638;2023-05-07T15:39:52;20.40;99.90
51783;DHT22;37845;53.196;5.638;2023-05-07T15:42:18;20.40;99.90
51783;DHT22;37845;53.196;5.638;2023-05-07T15:44:43;20.30;99.90
51783;DHT22;37845;53.196;5.638;2023-05-07T15:47:10;20.30;99.90
51783;DHT22;37845;53.196;5.638;2023-05-07T15:49:35;20.30;99.90
51783;DHT22;37845;53.196;5.638;2023-05-07T15:52:01;20.20;99.90
51783;DHT22;37845;53.196;5.638;2023-05-07T15:54:27;20.30;99.90
51783;DHT22;37845;53.196;5.638;2023-05-07T16:09:45;19.80;99.90
51783;DHT22;37845;53.196;5.638;2023-05-07T16:12:11;20.30;99.90
51783;DHT22;37845;53.196;5.638;2023-05-07T16:14:37;20.40;99.90
51783;DHT22;37845;53.196;5.638;2023-05-07T16:17:03;20.50;99.90
51783;DHT22;37845;53.196;5.638;2023-05-07T16:19:28;20.50;99.90
51783;DHT22;37845;53.196;5.638;2023-05-07T16:21:54;20.40;99.90
51783;DHT22;37845;53.196;5.638;2023-05-07T16:24:20;20.40;99.90
51783;DHT22;37845;53.196;5.638;2023-05-07T16:26:46;20.40;99.90
51783;DHT22;37845;53.196;5.638;2023-05-07T16:29:11;20.40;99.90
51783;DHT22;37845;53.196;5.638;2023-05-07T16:31:37;20.40;99.90
51783;DHT22;37845;53.196;5.638;2023-05-07T16:34:06;20.30;99.90
51783;DHT22;37845;53.196;5.638;2023-05-07T16:36:31;20.30;99.90
51783;DHT22;37845;53.196;5.638;2023-05-07T16:38:57;20.30;99.90
51783;DHT22;37845;53.196;5.638;2023-05-07T16:41:23;20.30;99.90
51783;DHT22;37845;53.196;5.638;2023-05-07T16:43:48;20.30;99.90
51783;DHT22;37845;53.196;5.638;2023-05-07T16:46:14;20.30;99.90
51783;DHT22;37845;53.196;5.638;2023-05-07T16:48:40;20.20;99.90
51783;DHT22;37845;53.196;5.638;2023-05-07T16:51:05;20.20;99.90
51783;DHT22;37845;53.196;5.638;2023-05-07T16:53:32;20.10;99.90
51783;DHT22;37845;53.196;5.638;2023-05-07T16:55:58;20.10;99.90
51783;DHT22;37845;53.196;5.638;2023-05-07T16:58:23;20.10;99.90
51783;DHT22;37845;53.196;5.638;2023-05-07T17:00:49;20.00;99.90
51783;DHT22;37845;53.196;5.638;2023-05-07T17:03:15;20.00;99.90
51783;DHT22;37845;53.196;5.638;2023-05-07T17:05:41;19.90;99.90
51783;DHT22;37845;53.196;5.638;2023-05-07T17:08:06;19.90;99.90
51783;DHT22;37845;53.196;5.638;2023-05-07T17:10:35;19.80;99.90
51783;DHT22;37845;53.196;5.638;2023-05-07T17:13:00;19.90;99.90
51783;DHT22;37845;53.196;5.638;2023-05-07T17:15:26;19.80;99.90
51783;DHT22;37845;53.196;5.638;2023-05-07T17:17:52;19.80;99.90
51783;DHT22;37845;53.196;5.638;2023-05-07T17:20:17;19.80;99.90
51783;DHT22;37845;53.196;5.638;2023-05-07T17:22:43;19.80;99.90
51783;DHT22;37845;53.196;5.638;2023-05-07T17:25:14;19.70;99.90
51783;DHT22;37845;53.196;5.638;2023-05-07T17:30:16;19.60;99.90
51783;DHT22;37845;53.196;5.638;2023-05-07T17:32:42;19.60;99.90
51783;DHT22;37845;53.196;5.638;2023-05-07T17:35:08;19.50;99.90
51783;DHT22;37845;53.196;5.638;2023-05-07T17:37:34;19.50;99.90
51783;DHT22;37845;53.196;5.638;2023-05-07T17:39:59;19.60;99.90
51783;DHT22;37845;53.196;5.638;2023-05-07T17:42:26;19.90;99.90
51783;DHT22;37845;53.196;5.638;2023-05-07T17:44:54;19.50;99.90
51783;DHT22;37845;53.196;5.638;2023-05-07T17:47:20;19.40;99.90
51783;DHT22;37845;53.196;5.638;2023-05-07T17:49:45;19.40;99.90
51783;DHT22;37845;53.196;5.638;2023-05-07T17:52:11;19.30;99.90
51783;DHT22;37845;53.196;5.638;2023-05-07T17:54:37;19.30;99.90
51783;DHT22;37845;53.196;5.638;2023-05-07T17:57:03;19.30;99.90
51783;DHT22;37845;53.196;5.638;2023-05-07T17:59:28;19.30;99.90
51783;DHT22;37845;53.196;5.638;2023-05-07T18:01:54;19.20;99.90
51783;DHT22;37845;53.196;5.638;2023-05-07T18:04:20;19.20;99.90
51783;DHT22;37845;53.196;5.638;2023-05-07T18:06:46;19.20;99.90
51783;DHT22;37845;53.196;5.638;2023-05-07T18:09:11;19.20;99.90
51783;DHT22;37845;53.196;5.638;2023-05-07T18:11:38;19.10;99.90
51783;DHT22;37845;53.196;5.638;2023-05-07T18:14:03;19.10;99.90
51783;DHT22;37845;53.196;5.638;2023-05-07T18:16:29;19.10;99.90
51783;DHT22;37845;53.196;5.638;2023-05-07T18:18:54;19.10;99.90
51783;DHT22;37845;53.196;5.638;2023-05-07T18:21:20;19.00;99.90
51783;DHT22;37845;53.196;5.638;2023-05-07T18:23:46;19.00;99.90
51783;DHT22;37845;53.196;5.638;2023-05-07T18:26:12;19.00;99.90
51783;DHT22;37845;53.196;5.638;2023-05-07T18:28:40;18.90;99.90
51783;DHT22;37845;53.196;5.638;2023-05-07T18:31:06;18.90;99.90
51783;DHT22;37845;53.196;5.638;2023-05-07T18:33:32;18.90;99.90
51783;DHT22;37845;53.196;5.638;2023-05-07T18:35:57;18.80;99.90
51783;DHT22;37845;53.196;5.638;2023-05-07T18:38:32;18.80;99.90
51783;DHT22;37845;53.196;5.638;2023-05-07T18:41:02;18.70;99.90
51783;DHT22;37845;53.196;5.638;2023-05-07T18:43:27;18.70;99.90
51783;DHT22;37845;53.196;5.638;2023-05-07T18:45:53;18.70;99.90
51783;DHT22;37845;53.196;5.638;2023-05-07T18:48:19;18.60;99.90
51783;DHT22;37845;53.196;5.638;2023-05-07T18:51:02;18.60;99.90
51783;DHT22;37845;53.196;5.638;2023-05-07T18:53:28;18.50;99.90
51783;DHT22;37845;53.196;5.638;2023-05-07T18:55:56;18.50;99.90
51783;DHT22;37845;53.196;5.638;2023-05-07T18:58:22;18.50;99.90
51783;DHT22;37845;53.196;5.638;2023-05-07T19:00:48;18.50;99.90
51783;DHT22;37845;53.196;5.638;2023-05-07T19:03:17;18.50;99.90
51783;DHT22;37845;53.196;5.638;2023-05-07T19:05:43;18.40;99.90
51783;DHT22;37845;53.196;5.638;2023-05-07T19:08:09;18.40;99.90
51783;DHT22;37845;53.196;5.638;2023-05-07T19:10:34;18.30;99.90
51783;DHT22;37845;53.196;5.638;2023-05-07T19:13:00;18.30;99.90
51783;DHT22;37845;53.196;5.638;2023-05-07T19:15:31;18.30;99.90
51783;DHT22;37845;53.196;5.638;2023-05-07T19:17:57;18.20;99.90
51783;DHT22;37845;53.196;5.638;2023-05-07T19:20:25;18.20;99.90
51783;DHT22;37845;53.196;5.638;2023-05-07T19:22:51;18.20;99.90
51783;DHT22;37845;53.196;5.638;2023-05-07T19:25:22;18.10;99.90
51783;DHT22;37845;53.196;5.638;2023-05-07T19:27:48;17.20;99.90
51783;DHT22;37845;53.196;5.638;2023-05-07T19:30:18;18.10;99.90
51783;DHT22;37845;53.196;5.638;2023-05-07T19:32:43;18.00;99.90
51783;DHT22;37845;53.196;5.638;2023-05-07T19:35:09;17.90;99.90
51783;DHT22;37845;53.196;5.638;2023-05-07T19:37:38;17.90;99.90
51783;DHT22;37845;53.196;5.638;2023-05-07T19:40:03;17.80;99.90
51783;DHT22;37845;53.196;5.638;2023-05-07T19:42:31;17.80;99.90
51783;DHT22;37845;53.196;5.638;2023-05-07T19:44:56;17.80;99.90
51783;DHT22;37845;53.196;5.638;2023-05-07T19:47:22;17.70;99.90
51783;DHT22;37845;53.196;5.638;2023-05-07T19:49:48;17.70;99.90
51783;DHT22;37845;53.196;5.638;2023-05-07T19:52:13;17.60;99.90
51783;DHT22;37845;53.196;5.638;2023-05-07T19:54:42;17.60;99.90
51783;DHT22;37845;53.196;5.638;2023-05-07T19:57:08;17.50;99.90
51783;DHT22;37845;53.196;5.638;2023-05-07T19:59:33;17.50;99.90
51783;DHT22;37845;53.196;5.638;2023-05-07T20:01:59;17.40;99.90
51783;DHT22;37845;53.196;5.638;2023-05-07T20:04:25;17.40;99.90
51783;DHT22;37845;53.196;5.638;2023-05-07T20:06:55;17.40;99.90
51783;DHT22;37845;53.196;5.638;2023-05-07T20:09:21;17.30;99.90
51783;DHT22;37845;53.196;5.638;2023-05-07T20:11:48;17.30;99.90
51783;DHT22;37845;53.196;5.638;2023-05-07T20:22:03;16.60;99.90
51783;DHT22;37845;53.196;5.638;2023-05-07T20:24:29;17.00;99.90
51783;DHT22;37845;53.196;5.638;2023-05-07T20:26:56;16.90;99.90
51783;DHT22;37845;53.196;5.638;2023-05-07T20:29:21;16.90;99.90
51783;DHT22;37845;53.196;5.638;2023-05-07T20:31:47;16.90;99.90
51783;DHT22;37845;53.196;5.638;2023-05-07T20:34:13;16.90;99.90
51783;DHT22;37845;53.196;5.638;2023-05-07T20:36:38;16.80;99.90
51783;DHT22;37845;53.196;5.638;2023-05-07T20:39:04;16.80;99.90
51783;DHT22;37845;53.196;5.638;2023-05-07T20:41:30;16.70;99.90
51783;DHT22;37845;53.196;5.638;2023-05-07T20:43:56;16.70;99.90
51783;DHT22;37845;53.196;5.638;2023-05-07T20:46:22;16.70;99.90
51783;DHT22;37845;53.196;5.638;2023-05-07T20:48:49;16.60;99.90
51783;DHT22;37845;53.196;5.638;2023-05-07T20:51:18;16.60;99.90
51783;DHT22;37845;53.196;5.638;2023-05-07T20:53:43;16.90;99.90
51783;DHT22;37845;53.196;5.638;2023-05-07T20:56:09;16.50;99.90
51783;DHT22;37845;53.196;5.638;2023-05-07T20:58:34;16.50;99.90
51783;DHT22;37845;53.196;5.638;2023-05-07T21:01:02;16.40;99.90
51783;DHT22;37845;53.196;5.638;2023-05-07T21:03:28;16.40;99.90
51783;DHT22;37845;53.196;5.638;2023-05-07T21:05:54;16.40;99.90
51783;DHT22;37845;53.196;5.638;2023-05-07T21:08:20;16.30;99.90
51783;DHT22;37845;53.196;5.638;2023-05-07T21:10:47;16.30;99.90
51783;DHT22;37845;53.196;5.638;2023-05-07T21:13:12;16.90;99.90
51783;DHT22;37845;53.196;5.638;2023-05-07T21:15:40;16.20;99.90
51783;DHT22;37845;53.196;5.638;2023-05-07T21:18:05;16.20;99.90
51783;DHT22;37845;53.196;5.638;2023-05-07T21:20:31;16.20;99.90
51783;DHT22;37845;53.196;5.638;2023-05-07T21:22:57;16.20;99.90
51783;DHT22;37845;53.196;5.638;2023-05-07T21:25:22;16.10;99.90
51783;DHT22;37845;53.196;5.638;2023-05-07T21:27:48;16.10;99.90
51783;DHT22;37845;53.196;5.638;2023-05-07T21:30:14;16.10;99.90
51783;DHT22;37845;53.196;5.638;2023-05-07T21:32:39;16.10;99.90
51783;DHT22;37845;53.196;5.638;2023-05-07T21:35:05;16.10;99.90
51783;DHT22;37845;53.196;5.638;2023-05-07T21:37:31;16.10;99.90
51783;DHT22;37845;53.196;5.638;2023-05-07T21:39:59;16.00;99.90
51783;DHT22;37845;53.196;5.638;2023-05-07T21:45:07;16.00;99.90
51783;DHT22;37845;53.196;5.638;2023-05-07T21:50:08;15.50;99.90
51783;DHT22;37845;53.196;5.638;2023-05-07T21:52:34;15.90;99.90
51783;DHT22;37845;53.196;5.638;2023-05-07T22:00:11;15.30;99.90
51783;DHT22;37845;53.196;5.638;2023-05-07T23:18:28;14.90;99.90
51783;DHT22;37845;53.196;5.638;2023-05-07T23:20:54;14.90;99.90
51783;DHT22;37845;53.196;5.638;2023-05-07T23:23:20;14.90;99.90
51783;DHT22;37845;53.196;5.638;2023-05-07T23:25:46;15.00;99.90
51783;DHT22;37845;53.196;5.638;2023-05-07T23:28:14;14.80;99.90
51783;DHT22;37845;53.196;5.638;2023-05-07T23:30:39;14.80;99.90
51783;DHT22;37845;53.196;5.638;2023-05-07T23:33:05;14.80;99.90
51783;DHT22;37845;53.196;5.638;2023-05-07T23:35:31;14.70;99.90
51783;DHT22;37845;53.196;5.638;2023-05-07T23:37:57;14.70;99.90
51783;DHT22;37845;53.196;5.638;2023-05-07T23:40:22;14.70;99.90
51783;DHT22;37845;53.196;5.638;2023-05-07T23:42:48;14.70;99.90
51783;DHT22;37845;53.196;5.638;2023-05-07T23:45:16;14.60;99.90
51783;DHT22;37845;53.196;5.638;2023-05-07T23:47:42;14.60;99.90
51783;DHT22;37845;53.196;5.638;2023-05-07T23:50:08;14.60;99.90
51783;DHT22;37845;53.196;5.638;2023-05-07T23:52:34;14.50;99.90
51783;DHT22;37845;53.196;5.638;2023-05-07T23:54:59;14.50;99.90
51783;DHT22;37845;53.196;5.638;2023-05-07T23:57:25;14.60;99.90
51783;DHT22;37845;53.196;5.638;2023-05-07T23:59:50;14.40;99.90
